createdAt,value
2022-08-09T00:01:43.064Z,15.90
2022-08-09T00:04:35.067Z,16.00
2022-08-09T00:07:10.388Z,16.00
2022-08-09T00:09:38.992Z,15.90
2022-08-09T00:12:07.886Z,15.80
2022-08-09T00:14:37.916Z,15.80
2022-08-09T00:17:06.590Z,15.90
2022-08-09T00:19:35.766Z,15.80
2022-08-09T00:22:04.391Z,15.80
2022-08-09T00:24:32.760Z,15.70
2022-08-09T00:27:01.037Z,15.70
2022-08-09T00:29:39.189Z,15.70
2022-08-09T00:32:26.656Z,15.70
2022-08-09T00:34:58.652Z,15.70
2022-08-09T00:37:26.720Z,15.70
2022-08-09T00:40:09.356Z,15.70
2022-08-09T00:44:19.392Z,15.70
2022-08-09T00:45:28.993Z,15.70
2022-08-09T00:47:56.832Z,15.60
2022-08-09T00:50:26.538Z,15.60
2022-08-09T00:52:55.665Z,15.60
2022-08-09T00:56:04.207Z,15.50
2022-08-09T00:58:14.758Z,15.50
2022-08-09T01:00:53.898Z,15.40
2022-08-09T01:03:28.914Z,15.30
2022-08-09T01:06:17.502Z,15.30
2022-08-09T01:08:56.725Z,15.30
2022-08-09T01:11:40.609Z,15.30
2022-08-09T01:14:28.032Z,15.30
2022-08-09T01:17:01.896Z,15.20
2022-08-09T01:19:51.640Z,15.30
2022-08-09T01:25:57.989Z,15.30
2022-08-09T01:28:28.179Z,15.20
2022-08-09T01:30:59.957Z,15.20
2022-08-09T01:33:30.133Z,15.10
2022-08-09T01:36:03.973Z,15.10
2022-08-09T01:38:38.577Z,15.20
2022-08-09T01:41:17.614Z,15.20
2022-08-09T01:43:52.580Z,15.30
2022-08-09T01:46:24.930Z,15.30
2022-08-09T01:49:00.007Z,15.40
2022-08-09T01:51:32.638Z,15.40
2022-08-09T01:54:04.165Z,15.40
2022-08-09T01:56:38.181Z,15.40
2022-08-09T01:59:16.102Z,15.40
2022-08-09T02:01:59.382Z,15.40
2022-08-09T02:04:29.335Z,15.40
2022-08-09T02:07:18.521Z,15.40
2022-08-09T02:10:05.954Z,15.40
2022-08-09T02:12:36.195Z,15.30
2022-08-09T02:15:07.957Z,15.20
2022-08-09T02:20:40.118Z,15.20
2022-08-09T02:23:14.082Z,15.20
2022-08-09T02:25:52.605Z,15.20
2022-08-09T02:28:24.373Z,15.10
2022-08-09T02:30:58.507Z,15.10
2022-08-09T02:33:38.083Z,15.20
2022-08-09T02:36:21.548Z,15.20
2022-08-09T02:38:56.848Z,15.20
2022-08-09T02:41:29.098Z,15.10
2022-08-09T02:44:01.494Z,15.10
2022-08-09T02:46:41.050Z,15.10
2022-08-09T02:49:11.814Z,15.10
2022-08-09T02:51:42.421Z,15.10
2022-08-09T02:54:14.635Z,15.10
2022-08-09T02:56:51.184Z,15.10
2022-08-09T02:59:26.471Z,15.10
2022-08-09T03:02:11.923Z,15.10
2022-08-09T03:04:40.951Z,15.10
2022-08-09T03:07:14.299Z,15.00
2022-08-09T03:09:54.052Z,14.90
2022-08-09T03:12:25.302Z,14.90
2022-08-09T03:14:54.699Z,14.90
2022-08-09T03:17:26.913Z,14.90
2022-08-09T03:20:03.158Z,14.90
2022-08-09T03:22:41.418Z,14.90
2022-08-09T03:25:21.961Z,14.90
2022-08-09T03:28:01.904Z,14.90
2022-08-09T03:30:34.193Z,14.90
2022-08-09T03:33:16.935Z,14.80
2022-08-09T03:36:15.525Z,14.80
2022-08-09T03:38:35.656Z,14.70
2022-08-09T03:41:05.551Z,14.60
2022-08-09T03:43:33.589Z,14.60
2022-08-09T03:46:19.974Z,14.70
2022-08-09T03:48:54.772Z,14.70
2022-08-09T03:51:44.438Z,14.70
2022-08-09T03:54:11.450Z,14.60
2022-08-09T03:56:41.171Z,14.70
2022-08-09T03:59:13.627Z,14.70
2022-08-09T04:01:46.176Z,14.70
2022-08-09T04:04:17.320Z,14.60
2022-08-09T04:06:49.196Z,14.70
2022-08-09T04:09:44.509Z,14.70
2022-08-09T04:12:37.055Z,14.60
2022-08-09T04:15:11.683Z,14.70
2022-08-09T04:17:53.352Z,14.70
2022-08-09T04:20:27.181Z,14.60
2022-08-09T04:22:56.903Z,14.60
2022-08-09T04:25:27.088Z,14.60
2022-08-09T04:28:02.526Z,14.60
2022-08-09T04:30:32.192Z,14.70
2022-08-09T04:33:01.779Z,14.70
2022-08-09T04:35:32.650Z,14.70
2022-08-09T04:38:03.525Z,14.70
2022-08-09T04:40:45.650Z,14.70
2022-08-09T04:43:13.950Z,14.70
2022-08-09T04:45:53.627Z,14.70
2022-08-09T04:48:23.922Z,14.50
2022-08-09T04:51:02.781Z,14.50
2022-08-09T04:53:31.467Z,14.50
2022-08-09T04:55:59.973Z,14.50
2022-08-09T04:58:29.912Z,14.50
2022-08-09T05:01:00.133Z,14.50
2022-08-09T05:03:40.571Z,14.60
2022-08-09T05:06:25.768Z,14.60
2022-08-09T05:09:00.614Z,14.70
2022-08-09T05:11:32.198Z,14.70
2022-08-09T05:14:05.889Z,14.80
2022-08-09T05:16:58.117Z,14.80
2022-08-09T05:19:26.063Z,14.80
2022-08-09T05:22:00.859Z,14.80
2022-08-09T05:24:28.733Z,14.90
2022-08-09T05:26:56.692Z,14.80
2022-08-09T05:29:31.457Z,14.90
2022-08-09T05:32:01.001Z,14.90
2022-08-09T05:34:31.767Z,15.00
2022-08-09T05:37:05.948Z,15.10
2022-08-09T05:39:36.058Z,15.10
2022-08-09T05:42:17.483Z,15.20
2022-08-09T05:44:51.308Z,15.20
2022-08-09T05:47:21.682Z,15.30
2022-08-09T05:50:24.184Z,15.30
2022-08-09T05:52:42.032Z,15.40
2022-08-09T05:55:20.472Z,15.50
2022-08-09T05:57:51.404Z,15.50
2022-08-09T06:00:26.115Z,15.60
2022-08-09T06:02:56.903Z,15.60
2022-08-09T06:05:50.230Z,15.70
2022-08-09T06:08:19.507Z,15.70
2022-08-09T06:10:53.341Z,15.90
2022-08-09T06:13:21.398Z,15.90
2022-08-09T06:15:51.745Z,16.00
2022-08-09T06:18:24.824Z,16.10
2022-08-09T06:20:58.308Z,16.20
2022-08-09T06:23:58.237Z,16.30
2022-08-09T06:26:20.794Z,16.50
2022-08-09T06:29:01.083Z,16.60
2022-08-09T06:31:40.404Z,16.70
2022-08-09T06:34:22.766Z,16.70
2022-08-09T06:36:57.438Z,16.90
2022-08-09T06:39:49.007Z,16.90
2022-08-09T06:42:19.806Z,17.00
2022-08-09T06:44:51.925Z,17.10
2022-08-09T06:47:23.785Z,17.20
2022-08-09T06:50:14.340Z,17.30
2022-08-09T06:52:45.780Z,17.40
2022-08-09T06:55:17.190Z,17.50
2022-08-09T06:58:01.409Z,17.60
2022-08-09T07:00:54.310Z,17.70
2022-08-09T07:03:19.813Z,17.70
2022-08-09T07:06:04.028Z,17.80
2022-08-09T07:08:34.246Z,17.80
2022-08-09T07:11:04.233Z,18.00
2022-08-09T07:13:44.957Z,18.10
2022-08-09T07:16:41.487Z,18.20
2022-08-09T07:19:10.681Z,18.40
2022-08-09T07:21:50.106Z,18.50
2022-08-09T07:24:32.537Z,18.70
2022-08-09T07:27:10.994Z,18.70
2022-08-09T07:29:56.791Z,18.90
2022-08-09T07:32:32.123Z,19.00
2022-08-09T07:35:02.654Z,19.10
2022-08-09T07:37:30.798Z,19.20
2022-08-09T07:40:17.292Z,19.20
2022-08-09T07:42:54.169Z,19.30
2022-08-09T07:45:40.378Z,19.40
2022-08-09T07:48:25.776Z,19.40
2022-08-09T07:51:10.215Z,19.50
2022-08-09T07:54:05.461Z,19.60
2022-08-09T07:56:35.940Z,19.70
2022-08-09T07:59:16.103Z,19.80
2022-08-09T08:01:55.619Z,19.90
2022-08-09T08:04:25.432Z,19.90
2022-08-09T08:07:00.111Z,20.10
2022-08-09T08:09:42.972Z,20.20
2022-08-09T08:12:28.448Z,20.20
2022-08-09T08:14:59.482Z,20.40
2022-08-09T08:17:52.397Z,20.50
2022-08-09T08:20:15.764Z,20.60
2022-08-09T08:22:48.407Z,20.70
2022-08-09T08:25:16.508Z,20.70
2022-08-09T08:27:49.882Z,20.80
2022-08-09T08:30:19.375Z,20.90
2022-08-09T08:32:53.678Z,21.00
2022-08-09T08:35:22.883Z,21.10
2022-08-09T08:37:59.666Z,21.10
2022-08-09T08:40:33.469Z,21.20
2022-08-09T08:43:02.159Z,21.40
2022-08-09T08:45:37.527Z,21.50
2022-08-09T08:48:06.855Z,21.70
2022-08-09T08:50:38.544Z,21.80
2022-08-09T08:53:07.026Z,21.90
2022-08-09T08:55:44.571Z,22.00
2022-08-09T08:58:12.665Z,22.20
2022-08-09T09:00:42.779Z,22.10
2022-08-09T09:03:22.983Z,22.10
2022-08-09T09:06:04.813Z,22.10
2022-08-09T09:08:40.522Z,22.10
2022-08-09T09:11:17.664Z,22.10
2022-08-09T09:13:55.064Z,22.20
2022-08-09T09:16:30.855Z,22.30
2022-08-09T09:22:05.175Z,22.50
2022-08-09T09:24:35.058Z,22.40
2022-08-09T09:27:08.460Z,22.40
2022-08-09T09:30:08.516Z,22.40
2022-08-09T09:32:32.444Z,22.50
2022-08-09T09:35:09.195Z,22.60
2022-08-09T09:37:40.538Z,22.70
2022-08-09T09:40:11.747Z,22.80
2022-08-09T09:42:45.983Z,22.90
2022-08-09T09:45:26.590Z,23.00
2022-08-09T09:47:59.733Z,23.20
2022-08-09T09:50:49.697Z,23.40
2022-08-09T09:53:21.174Z,23.50
2022-08-09T09:56:04.387Z,23.70
2022-08-09T09:58:45.780Z,23.90
2022-08-09T10:01:36.796Z,24.00
2022-08-09T10:04:16.153Z,24.10
2022-08-09T10:06:52.119Z,24.10
2022-08-09T10:09:24.085Z,24.20
2022-08-09T10:12:11.626Z,24.30
2022-08-09T10:14:44.022Z,24.30
2022-08-09T10:17:50.550Z,24.40
2022-08-09T10:20:27.239Z,24.40
2022-08-09T10:23:17.292Z,24.50
2022-08-09T10:26:04.388Z,24.50
2022-08-09T10:28:36.320Z,24.60
2022-08-09T10:34:10.345Z,24.80
2022-08-09T10:36:44.094Z,24.80
2022-08-09T10:39:16.086Z,24.80
2022-08-09T10:41:47.588Z,24.80
2022-08-09T10:44:18.700Z,25.00
2022-08-09T10:48:19.327Z,25.00
2022-08-09T10:50:21.089Z,25.00
2022-08-09T10:53:10.501Z,24.90
2022-08-09T10:55:55.375Z,24.80
2022-08-09T10:58:35.005Z,24.70
2022-08-09T11:03:07.301Z,24.70
2022-08-09T11:04:19.961Z,24.70
2022-08-09T11:07:56.808Z,24.60
2022-08-09T11:10:54.863Z,24.60
2022-08-09T11:13:50.710Z,24.50
2022-08-09T11:16:38.389Z,24.60
2022-08-09T11:19:10.518Z,24.70
2022-08-09T11:22:16.908Z,24.70
2022-08-09T11:25:05.338Z,24.80
2022-08-09T11:28:03.634Z,25.00
2022-08-09T11:30:35.924Z,25.10
2022-08-09T11:33:05.806Z,25.30
2022-08-09T11:35:50.366Z,25.40
2022-08-09T11:38:22.472Z,25.40
2022-08-09T11:40:57.013Z,25.40
2022-08-09T11:43:43.355Z,25.50
2022-08-09T11:46:13.383Z,25.40
2022-08-09T11:48:56.045Z,25.30
2022-08-09T11:53:00.536Z,25.20
2022-08-09T11:54:28.246Z,25.30
2022-08-09T11:57:48.042Z,25.00
2022-08-09T12:00:27.718Z,24.80
2022-08-09T12:02:58.496Z,24.70
2022-08-09T12:05:39.653Z,24.60
2022-08-09T12:08:12.146Z,24.50
2022-08-09T12:10:45.257Z,24.60
2022-08-09T12:14:10.483Z,24.60
2022-08-09T12:16:37.487Z,24.70
2022-08-09T12:19:09.967Z,24.80
2022-08-09T12:21:48.477Z,25.00
2022-08-09T12:24:22.006Z,25.10
2022-08-09T12:28:58.862Z,25.20
2022-08-09T12:30:04.122Z,25.30
2022-08-09T12:32:42.606Z,25.50
2022-08-09T12:35:19.304Z,25.70
2022-08-09T12:37:52.212Z,25.90
2022-08-09T12:40:23.161Z,26.20
2022-08-09T12:42:52.889Z,26.50
2022-08-09T12:45:33.591Z,26.60
2022-08-09T12:48:07.906Z,26.70
2022-08-09T12:50:50.509Z,26.70
2022-08-09T12:53:35.173Z,26.60
2022-08-09T12:56:40.039Z,26.50
2022-08-09T12:59:10.204Z,26.30
2022-08-09T13:01:46.938Z,26.20
2022-08-09T13:04:36.442Z,26.20
2022-08-09T13:07:16.277Z,26.00
2022-08-09T13:09:52.843Z,25.90
2022-08-09T13:12:28.311Z,25.80
2022-08-09T13:15:05.143Z,25.70
2022-08-09T13:18:03.451Z,25.70
2022-08-09T13:20:37.769Z,25.80
2022-08-09T13:24:16.246Z,25.90
2022-08-09T13:26:10.098Z,25.70
2022-08-09T13:28:39.570Z,25.70
2022-08-09T13:32:12.521Z,25.80
2022-08-09T13:33:57.594Z,25.90
2022-08-09T13:36:42.236Z,26.00
2022-08-09T13:41:19.250Z,26.20
2022-08-09T13:42:03.055Z,26.40
2022-08-09T13:44:31.629Z,26.50
2022-08-09T13:47:25.324Z,26.70
2022-08-09T13:49:56.552Z,26.80
2022-08-09T13:52:29.693Z,26.80
2022-08-09T13:55:05.064Z,26.80
2022-08-09T13:57:40.156Z,26.80
2022-08-09T14:00:12.544Z,26.70
2022-08-09T14:03:02.208Z,26.60
2022-08-09T14:05:58.480Z,26.60
2022-08-09T14:08:21.662Z,26.40
2022-08-09T14:10:53.002Z,26.40
2022-08-09T14:14:15.833Z,26.30
2022-08-09T14:16:13.775Z,26.20
2022-08-09T14:18:45.347Z,26.20
2022-08-09T14:21:17.658Z,26.20
2022-08-09T14:23:53.705Z,26.20
2022-08-09T14:26:30.479Z,26.20
2022-08-09T14:29:03.115Z,26.20
2022-08-09T14:31:49.443Z,26.30
2022-08-09T14:34:31.564Z,26.40
2022-08-09T14:37:02.821Z,26.30
2022-08-09T14:39:45.817Z,26.40
2022-08-09T14:42:30.204Z,26.50
2022-08-09T14:46:46.061Z,26.50
2022-08-09T14:47:58.408Z,26.40
2022-08-09T14:50:30.383Z,26.40
2022-08-09T14:52:59.115Z,26.30
2022-08-09T14:55:32.182Z,26.30
2022-08-09T14:58:04.457Z,26.10
2022-08-09T15:00:34.170Z,26.10
2022-08-09T15:03:03.899Z,26.00
2022-08-09T15:05:31.887Z,25.90
2022-08-09T15:07:59.989Z,25.90
2022-08-09T15:10:31.507Z,25.90
2022-08-09T15:13:01.404Z,25.90
2022-08-09T15:15:34.403Z,25.90
2022-08-09T15:18:08.155Z,25.90
2022-08-09T15:22:00.742Z,25.90
2022-08-09T15:24:03.722Z,25.90
2022-08-09T15:26:19.299Z,25.80
2022-08-09T15:29:04.188Z,25.70
2022-08-09T15:31:41.507Z,25.70
2022-08-09T15:34:33.439Z,25.80
2022-08-09T15:36:59.317Z,25.90
2022-08-09T15:39:43.978Z,26.10
2022-08-09T15:42:15.506Z,26.20
2022-08-09T15:44:47.098Z,26.30
2022-08-09T15:47:21.743Z,26.40
2022-08-09T15:50:03.876Z,26.50
2022-08-09T15:52:34.758Z,26.50
2022-08-09T15:55:03.434Z,26.60
2022-08-09T15:57:35.853Z,26.50
2022-08-09T16:00:24.510Z,26.50
2022-08-09T16:02:57.047Z,26.40
2022-08-09T16:05:47.849Z,26.30
2022-08-09T16:08:31.017Z,26.20
2022-08-09T16:11:01.620Z,26.00
2022-08-09T16:14:03.533Z,26.00
2022-08-09T16:16:18.544Z,25.80
2022-08-09T16:18:48.490Z,25.70
2022-08-09T16:21:25.041Z,25.60
2022-08-09T16:23:55.439Z,25.50
2022-08-09T16:26:34.629Z,25.40
2022-08-09T16:29:10.639Z,25.30
2022-08-09T16:32:19.940Z,25.10
2022-08-09T16:34:54.425Z,25.10
2022-08-09T16:37:55.203Z,24.90
2022-08-09T16:40:13.581Z,24.90
2022-08-09T16:42:45.533Z,24.90
2022-08-09T16:45:17.320Z,24.80
2022-08-09T16:48:39.215Z,24.80
2022-08-09T16:50:34.913Z,24.80
2022-08-09T16:53:08.955Z,24.70
2022-08-09T16:55:58.677Z,24.70
2022-08-09T16:58:24.791Z,24.70
2022-08-09T17:00:54.976Z,24.50
2022-08-09T17:03:23.098Z,24.50
2022-08-09T17:06:06.687Z,24.50
2022-08-09T17:08:43.337Z,24.50
2022-08-09T17:11:15.290Z,24.40
2022-08-09T17:13:45.093Z,24.40
2022-08-09T17:16:13.257Z,24.30
2022-08-09T17:18:41.187Z,24.20
2022-08-09T17:21:15.311Z,24.20
2022-08-09T17:24:20.431Z,24.10
2022-08-09T17:26:31.608Z,24.00
2022-08-09T17:29:05.724Z,23.90
2022-08-09T17:31:49.198Z,23.80
2022-08-09T17:35:01.028Z,23.80
2022-08-09T17:37:06.822Z,23.70
2022-08-09T17:39:52.113Z,23.60
2022-08-09T17:42:41.156Z,23.60
2022-08-09T17:45:15.949Z,23.60
2022-08-09T17:48:01.857Z,23.50
2022-08-09T17:50:36.211Z,23.40
2022-08-09T17:53:19.681Z,23.40
2022-08-09T17:55:55.279Z,23.40
2022-08-09T17:58:27.361Z,23.30
2022-08-09T18:00:58.281Z,23.30
2022-08-09T18:03:28.672Z,23.20
2022-08-09T18:05:58.412Z,23.10
2022-08-09T18:08:30.272Z,23.10
2022-08-09T18:11:02.041Z,23.00
2022-08-09T18:13:38.769Z,23.00
2022-08-09T18:16:29.390Z,22.90
2022-08-09T18:18:57.510Z,22.90
2022-08-09T18:21:27.441Z,22.90
2022-08-09T18:24:11.587Z,22.80
2022-08-09T18:26:46.542Z,22.70
2022-08-09T18:30:42.771Z,22.70
2022-08-09T18:32:05.612Z,22.60
2022-08-09T18:34:35.594Z,22.50
2022-08-09T18:37:03.839Z,22.40
2022-08-09T18:39:33.204Z,22.40
2022-08-09T18:42:05.415Z,22.30
2022-08-09T18:44:36.885Z,22.30
2022-08-09T18:47:12.516Z,22.20
2022-08-09T18:49:46.971Z,22.10
2022-08-09T18:52:18.906Z,22.00
2022-08-09T18:54:54.333Z,21.90
2022-08-09T18:57:23.945Z,21.90
2022-08-09T19:00:09.054Z,21.80
2022-08-09T19:02:37.142Z,21.70
2022-08-09T19:05:20.181Z,21.60
2022-08-09T19:07:59.143Z,21.50
2022-08-09T19:10:39.997Z,21.50
2022-08-09T19:13:22.052Z,21.40
2022-08-09T19:15:52.099Z,21.30
2022-08-09T19:18:33.367Z,21.20
2022-08-09T19:21:09.142Z,21.20
2022-08-09T19:24:37.624Z,21.10
2022-08-09T19:26:29.401Z,21.00
2022-08-09T19:29:09.709Z,20.90
2022-08-09T19:31:49.614Z,20.90
2022-08-09T19:34:22.713Z,20.80
2022-08-09T19:36:51.792Z,20.70
2022-08-09T19:39:20.881Z,20.70
2022-08-09T19:42:09.455Z,20.60
2022-08-09T19:44:43.706Z,20.60
2022-08-09T19:47:23.062Z,20.50
2022-08-09T19:50:08.502Z,20.50
2022-08-09T19:52:49.446Z,20.40
2022-08-09T19:55:25.742Z,20.30
2022-08-09T19:58:16.329Z,20.30
2022-08-09T20:00:46.362Z,20.20
2022-08-09T20:04:11.169Z,20.20
2022-08-09T20:06:04.839Z,20.20
2022-08-09T20:08:50.265Z,20.10
2022-08-09T20:11:18.131Z,20.10
2022-08-09T20:13:53.983Z,20.00
2022-08-09T20:16:34.089Z,19.90
2022-08-09T20:19:48.123Z,19.90
2022-08-09T20:22:00.077Z,19.80
2022-08-09T20:24:33.819Z,19.80
2022-08-09T20:27:07.849Z,19.70
2022-08-09T20:29:39.026Z,19.60
2022-08-09T20:32:31.175Z,19.60
2022-08-09T20:34:56.393Z,19.50
2022-08-09T20:37:24.786Z,19.50
2022-08-09T20:40:15.115Z,19.40
2022-08-09T20:42:40.679Z,19.30
2022-08-09T20:45:57.278Z,19.30
2022-08-09T20:48:10.937Z,19.20
2022-08-09T20:50:47.036Z,19.10
2022-08-09T20:53:34.906Z,19.10
2022-08-09T20:56:05.519Z,19.00
2022-08-09T20:58:34.050Z,19.00
2022-08-09T21:01:33.463Z,18.90
2022-08-09T21:05:48.605Z,18.90
2022-08-09T21:06:44.092Z,18.80
2022-08-09T21:09:13.731Z,18.70
2022-08-09T21:14:34.712Z,18.60
2022-08-09T21:18:21.220Z,18.60
2022-08-09T21:20:19.432Z,18.60
2022-08-09T21:22:47.096Z,18.50
2022-08-09T21:25:38.477Z,18.50
2022-08-09T21:28:07.562Z,18.40
2022-08-09T21:30:41.065Z,18.40
2022-08-09T21:33:10.906Z,18.30
2022-08-09T21:35:51.433Z,18.30
2022-08-09T21:38:31.425Z,18.20
2022-08-09T21:41:00.212Z,18.20
2022-08-09T21:43:56.105Z,18.20
2022-08-09T21:46:18.307Z,18.10
2022-08-09T21:48:49.476Z,18.10
2022-08-09T21:51:24.013Z,18.00
2022-08-09T21:53:55.423Z,18.00
2022-08-09T21:56:33.794Z,18.00
2022-08-09T21:59:11.795Z,17.90
2022-08-09T22:02:01.195Z,17.90
2022-08-09T22:04:57.044Z,17.80
2022-08-09T22:07:35.016Z,17.80
2022-08-09T22:10:09.221Z,17.70
2022-08-09T22:12:38.761Z,17.70
2022-08-09T22:15:13.890Z,17.70
2022-08-09T22:17:46.214Z,17.60
2022-08-09T22:20:17.062Z,17.60
2022-08-09T22:22:50.670Z,17.60
2022-08-09T22:26:08.197Z,17.50
2022-08-09T22:28:07.293Z,17.50
2022-08-09T22:30:36.671Z,17.50
2022-08-09T22:33:09.633Z,17.50
2022-08-09T22:36:02.992Z,17.40
2022-08-09T22:38:26.934Z,17.40
2022-08-09T22:40:58.473Z,17.30
2022-08-09T22:44:02.336Z,17.30
2022-08-09T22:48:15.374Z,17.30
2022-08-09T22:49:10.126Z,17.30
2022-08-09T22:51:49.278Z,17.20
2022-08-09T22:54:21.595Z,17.20
2022-08-09T22:56:54.717Z,17.20
2022-08-09T22:59:57.215Z,17.10
2022-08-09T23:02:15.682Z,17.10
2022-08-09T23:04:53.404Z,17.10
2022-08-09T23:08:27.526Z,17.10
2022-08-09T23:10:30.520Z,17.10
2022-08-09T23:12:58.435Z,17.00
2022-08-09T23:15:26.745Z,17.00
2022-08-09T23:17:54.790Z,17.00
2022-08-09T23:20:22.786Z,17.00
2022-08-09T23:22:55.116Z,17.00
2022-08-09T23:25:22.947Z,16.90
2022-08-09T23:27:57.229Z,16.90
2022-08-09T23:30:38.486Z,16.90
2022-08-09T23:33:06.398Z,16.80
2022-08-09T23:36:07.189Z,16.80
2022-08-09T23:38:23.581Z,16.80
2022-08-09T23:40:52.081Z,16.80
2022-08-09T23:43:19.978Z,16.70
2022-08-09T23:45:47.962Z,16.70
2022-08-09T23:48:18.087Z,16.70
2022-08-09T23:50:45.957Z,16.70
2022-08-09T23:53:14.934Z,16.70
2022-08-09T23:55:47.275Z,16.60
2022-08-09T23:58:29.163Z,16.60
